sensor_id;sensor_type;location;lat;lon;timestamp;pressure;altitude;pressure_sealevel;temperature;humidity
19596;BME280;9945;46.010;8.946;2023-05-25T00:01:40;97286.91;;;17.94;100.00
19596;BME280;9945;46.010;8.946;2023-05-25T00:04:08;97277.59;;;17.76;100.00
19596;BME280;9945;46.010;8.946;2023-05-25T00:06:35;97279.00;;;17.79;100.00
19596;BME280;9945;46.010;8.946;2023-05-25T00:09:05;97273.56;;;17.87;100.00
19596;BME280;9945;46.010;8.946;2023-05-25T00:14:47;97269.53;;;17.91;100.00
19596;BME280;9945;46.010;8.946;2023-05-25T00:17:14;97262.97;;;17.87;100.00
19596;BME280;9945;46.010;8.946;2023-05-25T00:19:43;97264.63;;;17.88;100.00
19596;BME280;9945;46.010;8.946;2023-05-25T00:22:10;97271.34;;;17.84;100.00
19596;BME280;9945;46.010;8.946;2023-05-25T00:24:38;97269.50;;;17.85;100.00
19596;BME280;9945;46.010;8.946;2023-05-25T00:27:05;97257.31;;;17.90;100.00
19596;BME280;9945;46.010;8.946;2023-05-25T00:29:32;97260.53;;;17.86;100.00
19596;BME280;9945;46.010;8.946;2023-05-25T00:32:01;97267.66;;;17.85;100.00
19596;BME280;9945;46.010;8.946;2023-05-25T00:34:28;97252.16;;;17.82;100.00
19596;BME280;9945;46.010;8.946;2023-05-25T00:36:54;97249.31;;;17.84;100.00
19596;BME280;9945;46.010;8.946;2023-05-25T00:39:21;97250.31;;;17.83;98.23
19596;BME280;9945;46.010;8.946;2023-05-25T00:41:49;97248.72;;;17.88;97.09
19596;BME280;9945;46.010;8.946;2023-05-25T00:44:16;97255.00;;;17.81;96.84
19596;BME280;9945;46.010;8.946;2023-05-25T00:46:47;97264.53;;;17.75;96.71
19596;BME280;9945;46.010;8.946;2023-05-25T00:49:17;97250.84;;;17.71;97.05
19596;BME280;9945;46.010;8.946;2023-05-25T00:51:45;97249.06;;;17.78;96.56
19596;BME280;9945;46.010;8.946;2023-05-25T00:54:12;97248.22;;;17.78;96.50
19596;BME280;9945;46.010;8.946;2023-05-25T00:56:43;97240.25;;;17.71;95.12
19596;BME280;9945;46.010;8.946;2023-05-25T00:59:16;97234.81;;;17.58;97.84
19596;BME280;9945;46.010;8.946;2023-05-25T01:01:46;97234.19;;;17.56;99.13
19596;BME280;9945;46.010;8.946;2023-05-25T01:04:16;97230.28;;;17.73;98.57
19596;BME280;9945;46.010;8.946;2023-05-25T01:06:47;97228.09;;;17.77;99.23
19596;BME280;9945;46.010;8.946;2023-05-25T01:09:16;97226.00;;;17.72;99.39
19596;BME280;9945;46.010;8.946;2023-05-25T01:11:48;97220.28;;;17.69;99.39
19596;BME280;9945;46.010;8.946;2023-05-25T01:14:18;97228.59;;;17.45;100.00
19596;BME280;9945;46.010;8.946;2023-05-25T01:16:47;97223.69;;;17.42;100.00
19596;BME280;9945;46.010;8.946;2023-05-25T01:19:15;97229.47;;;17.52;100.00
19596;BME280;9945;46.010;8.946;2023-05-25T01:21:47;97234.56;;;17.53;100.00
19596;BME280;9945;46.010;8.946;2023-05-25T01:24:21;97248.88;;;17.59;100.00
19596;BME280;9945;46.010;8.946;2023-05-25T01:26:54;97239.13;;;17.59;100.00
19596;BME280;9945;46.010;8.946;2023-05-25T01:29:25;97227.84;;;17.51;100.00
19596;BME280;9945;46.010;8.946;2023-05-25T01:31:54;97228.34;;;17.39;100.00
19596;BME280;9945;46.010;8.946;2023-05-25T01:34:22;97227.28;;;17.34;100.00
19596;BME280;9945;46.010;8.946;2023-05-25T01:36:52;97227.59;;;17.24;100.00
19596;BME280;9945;46.010;8.946;2023-05-25T01:39:20;97216.75;;;17.40;100.00
19596;BME280;9945;46.010;8.946;2023-05-25T01:41:47;97226.19;;;17.50;100.00
19596;BME280;9945;46.010;8.946;2023-05-25T01:44:14;97225.88;;;17.59;100.00
19596;BME280;9945;46.010;8.946;2023-05-25T01:46:41;97219.66;;;17.67;100.00
19596;BME280;9945;46.010;8.946;2023-05-25T01:49:15;97222.72;;;17.70;100.00
19596;BME280;9945;46.010;8.946;2023-05-25T01:51:54;97227.00;;;17.71;99.50
19596;BME280;9945;46.010;8.946;2023-05-25T01:54:29;97226.38;;;17.69;100.00
19596;BME280;9945;46.010;8.946;2023-05-25T01:56:58;97226.38;;;17.69;100.00
19596;BME280;9945;46.010;8.946;2023-05-25T01:59:27;97236.72;;;17.64;100.00
19596;BME280;9945;46.010;8.946;2023-05-25T02:01:55;97234.91;;;17.44;100.00
19596;BME280;9945;46.010;8.946;2023-05-25T02:04:24;97228.34;;;17.39;100.00
19596;BME280;9945;46.010;8.946;2023-05-25T02:06:52;97230.50;;;17.51;100.00
19596;BME280;9945;46.010;8.946;2023-05-25T02:09:19;97229.09;;;17.55;100.00
19596;BME280;9945;46.010;8.946;2023-05-25T02:11:46;97237.38;;;17.66;100.00
19596;BME280;9945;46.010;8.946;2023-05-25T02:14:13;97241.31;;;17.56;100.00
19596;BME280;9945;46.010;8.946;2023-05-25T02:16:40;97237.38;;;17.66;100.00
19596;BME280;9945;46.010;8.946;2023-05-25T02:19:11;97230.06;;;17.68;100.00
19596;BME280;9945;46.010;8.946;2023-05-25T02:21:39;97240.19;;;17.65;100.00
19596;BME280;9945;46.010;8.946;2023-05-25T02:24:08;97241.75;;;17.59;100.00
19596;BME280;9945;46.010;8.946;2023-05-25T02:26:36;97238.38;;;17.65;100.00
19596;BME280;9945;46.010;8.946;2023-05-25T02:29:03;97237.03;;;17.55;100.00
19596;BME280;9945;46.010;8.946;2023-05-25T02:31:30;97232.56;;;17.55;100.00
19596;BME280;9945;46.010;8.946;2023-05-25T02:33:57;97236.09;;;17.62;100.00
19596;BME280;9945;46.010;8.946;2023-05-25T02:36:24;97228.06;;;17.56;100.00
19596;BME280;9945;46.010;8.946;2023-05-25T02:38:51;97229.72;;;17.35;100.00
19596;BME280;9945;46.010;8.946;2023-05-25T02:41:20;97230.38;;;17.16;100.00
19596;BME280;9945;46.010;8.946;2023-05-25T02:43:48;97231.06;;;17.25;100.00
19596;BME280;9945;46.010;8.946;2023-05-25T02:46:15;97226.88;;;17.37;100.00
19596;BME280;9945;46.010;8.946;2023-05-25T02:48:42;97228.59;;;17.45;100.00
19596;BME280;9945;46.010;8.946;2023-05-25T02:51:09;97233.13;;;17.51;100.00
19596;BME280;9945;46.010;8.946;2023-05-25T02:53:36;97252.91;;;17.55;100.00
19596;BME280;9945;46.010;8.946;2023-05-25T02:56:02;97255.13;;;17.51;100.00
19596;BME280;9945;46.010;8.946;2023-05-25T02:58:31;97253.72;;;17.55;100.00
19596;BME280;9945;46.010;8.946;2023-05-25T03:00:58;97258.47;;;17.60;100.00
19596;BME280;9945;46.010;8.946;2023-05-25T03:03:25;97263.41;;;17.63;100.00
19596;BME280;9945;46.010;8.946;2023-05-25T03:05:52;97267.50;;;17.65;100.00
19596;BME280;9945;46.010;8.946;2023-05-25T03:08:19;97261.25;;;17.52;100.00
19596;BME280;9945;46.010;8.946;2023-05-25T03:10:46;97244.69;;;17.43;100.00
19596;BME280;9945;46.010;8.946;2023-05-25T03:13:13;97262.44;;;17.49;100.00
19596;BME280;9945;46.010;8.946;2023-05-25T03:15:41;97271.25;;;17.56;100.00
19596;BME280;9945;46.010;8.946;2023-05-25T03:18:08;97275.13;;;17.32;100.00
19596;BME280;9945;46.010;8.946;2023-05-25T03:20:35;97274.03;;;17.48;100.00
19596;BME280;9945;46.010;8.946;2023-05-25T03:23:02;97276.69;;;17.48;100.00
19596;BME280;9945;46.010;8.946;2023-05-25T03:25:28;97280.28;;;17.40;100.00
19596;BME280;9945;46.010;8.946;2023-05-25T03:27:55;97283.13;;;17.39;100.00
19596;BME280;9945;46.010;8.946;2023-05-25T03:30:22;97285.09;;;17.52;100.00
19596;BME280;9945;46.010;8.946;2023-05-25T03:32:51;97286.63;;;17.46;100.00
19596;BME280;9945;46.010;8.946;2023-05-25T03:35:18;97285.13;;;17.37;100.00
19596;BME280;9945;46.010;8.946;2023-05-25T03:37:44;97289.09;;;17.48;100.00
19596;BME280;9945;46.010;8.946;2023-05-25T03:40:11;97281.22;;;17.54;100.00
19596;BME280;9945;46.010;8.946;2023-05-25T03:42:38;97284.25;;;17.51;100.00
19596;BME280;9945;46.010;8.946;2023-05-25T03:45:09;97299.16;;;17.52;100.00
19596;BME280;9945;46.010;8.946;2023-05-25T03:47:36;97309.66;;;17.46;100.00
19596;BME280;9945;46.010;8.946;2023-05-25T03:50:05;97319.22;;;17.47;100.00
19596;BME280;9945;46.010;8.946;2023-05-25T03:52:33;97328.75;;;17.41;100.00
19596;BME280;9945;46.010;8.946;2023-05-25T03:55:00;97325.94;;;17.43;100.00
19596;BME280;9945;46.010;8.946;2023-05-25T03:57:28;97319.41;;;17.45;100.00
19596;BME280;9945;46.010;8.946;2023-05-25T03:59:55;97321.88;;;17.47;100.00
19596;BME280;9945;46.010;8.946;2023-05-25T04:02:22;97335.59;;;17.35;100.00
19596;BME280;9945;46.010;8.946;2023-05-25T04:04:49;97335.00;;;17.33;100.00
19596;BME280;9945;46.010;8.946;2023-05-25T04:07:19;97321.13;;;17.31;100.00
19596;BME280;9945;46.010;8.946;2023-05-25T04:09:46;97325.13;;;17.27;100.00
19596;BME280;9945;46.010;8.946;2023-05-25T04:12:12;97334.09;;;17.26;100.00
19596;BME280;9945;46.010;8.946;2023-05-25T04:14:39;97335.34;;;17.30;100.00
19596;BME280;9945;46.010;8.946;2023-05-25T04:17:07;97354.94;;;17.36;100.00
19596;BME280;9945;46.010;8.946;2023-05-25T04:19:33;97352.56;;;17.41;100.00
19596;BME280;9945;46.010;8.946;2023-05-25T04:22:00;97358.53;;;17.28;100.00
19596;BME280;9945;46.010;8.946;2023-05-25T04:24:28;97357.53;;;17.29;100.00
19596;BME280;9945;46.010;8.946;2023-05-25T04:26:57;97358.81;;;17.33;100.00
19596;BME280;9945;46.010;8.946;2023-05-25T04:29:24;97344.19;;;17.37;100.00
19596;BME280;9945;46.010;8.946;2023-05-25T04:31:51;97350.94;;;17.40;100.00
19596;BME280;9945;46.010;8.946;2023-05-25T04:34:19;97366.25;;;17.45;100.00
19596;BME280;9945;46.010;8.946;2023-05-25T04:36:47;97363.41;;;17.25;100.00
19596;BME280;9945;46.010;8.946;2023-05-25T04:39:14;97363.28;;;17.33;100.00
19596;BME280;9945;46.010;8.946;2023-05-25T04:41:44;97368.22;;;17.21;100.00
19596;BME280;9945;46.010;8.946;2023-05-25T04:44:11;97376.16;;;17.21;100.00
19596;BME280;9945;46.010;8.946;2023-05-25T04:46:39;97373.81;;;17.26;100.00
19596;BME280;9945;46.010;8.946;2023-05-25T04:49:05;97377.69;;;17.30;100.00
19596;BME280;9945;46.010;8.946;2023-05-25T04:51:34;97389.19;;;17.37;100.00
19596;BME280;9945;46.010;8.946;2023-05-25T04:54:01;97395.88;;;17.33;100.00
19596;BME280;9945;46.010;8.946;2023-05-25T04:56:28;97403.19;;;17.17;100.00
19596;BME280;9945;46.010;8.946;2023-05-25T04:58:56;97404.91;;;17.24;100.00
19596;BME280;9945;46.010;8.946;2023-05-25T05:01:23;97392.13;;;17.28;100.00
19596;BME280;9945;46.010;8.946;2023-05-25T05:03:50;97390.69;;;17.25;100.00
19596;BME280;9945;46.010;8.946;2023-05-25T05:06:17;97391.75;;;17.31;100.00
19596;BME280;9945;46.010;8.946;2023-05-25T05:08:44;97402.19;;;17.18;100.00
19596;BME280;9945;46.010;8.946;2023-05-25T05:11:11;97409.31;;;17.17;100.00
19596;BME280;9945;46.010;8.946;2023-05-25T05:13:38;97405.63;;;17.18;100.00
19596;BME280;9945;46.010;8.946;2023-05-25T05:16:06;97415.97;;;17.13;100.00
19596;BME280;9945;46.010;8.946;2023-05-25T05:18:33;97425.81;;;17.19;100.00
19596;BME280;9945;46.010;8.946;2023-05-25T05:21:00;97430.09;;;17.20;100.00
19596;BME280;9945;46.010;8.946;2023-05-25T05:23:27;97430.75;;;17.22;100.00
19596;BME280;9945;46.010;8.946;2023-05-25T05:25:54;97430.88;;;17.35;100.00
19596;BME280;9945;46.010;8.946;2023-05-25T05:28:20;97425.88;;;17.40;100.00
19596;BME280;9945;46.010;8.946;2023-05-25T05:30:51;97432.81;;;17.42;100.00
19596;BME280;9945;46.010;8.946;2023-05-25T05:33:19;97435.00;;;17.38;100.00
19596;BME280;9945;46.010;8.946;2023-05-25T05:35:48;97437.47;;;17.39;100.00
19596;BME280;9945;46.010;8.946;2023-05-25T05:38:15;97437.53;;;17.46;100.00
19596;BME280;9945;46.010;8.946;2023-05-25T05:40:41;97431.13;;;17.55;100.00
19596;BME280;9945;46.010;8.946;2023-05-25T05:43:09;97435.25;;;17.58;100.00
19596;BME280;9945;46.010;8.946;2023-05-25T05:45:36;97430.31;;;17.55;100.00
19596;BME280;9945;46.010;8.946;2023-05-25T05:48:04;97433.41;;;17.58;100.00
19596;BME280;9945;46.010;8.946;2023-05-25T05:50:35;97435.44;;;17.56;100.00
19596;BME280;9945;46.010;8.946;2023-05-25T05:53:02;97444.75;;;17.67;100.00
19596;BME280;9945;46.010;8.946;2023-05-25T05:55:29;97446.47;;;17.74;100.00
19596;BME280;9945;46.010;8.946;2023-05-25T05:57:56;97453.13;;;17.70;100.00
19596;BME280;9945;46.010;8.946;2023-05-25T06:00:23;97448.81;;;17.84;100.00
19596;BME280;9945;46.010;8.946;2023-05-25T06:02:50;97448.19;;;17.82;100.00
19596;BME280;9945;46.010;8.946;2023-05-25T06:05:17;97450.38;;;17.78;100.00
19596;BME280;9945;46.010;8.946;2023-05-25T06:07:46;97459.13;;;17.79;100.00
19596;BME280;9945;46.010;8.946;2023-05-25T06:10:13;97465.91;;;17.82;100.00
19596;BME280;9945;46.010;8.946;2023-05-25T06:12:40;97463.94;;;17.90;100.00
19596;BME280;9945;46.010;8.946;2023-05-25T06:15:07;97474.03;;;17.80;100.00
19596;BME280;9945;46.010;8.946;2023-05-25T06:17:34;97477.31;;;17.82;100.00
19596;BME280;9945;46.010;8.946;2023-05-25T06:20:02;97493.81;;;17.99;100.00
19596;BME280;9945;46.010;8.946;2023-05-25T06:22:29;97491.16;;;17.99;100.00
19596;BME280;9945;46.010;8.946;2023-05-25T06:24:59;97490.63;;;17.89;100.00
19596;BME280;9945;46.010;8.946;2023-05-25T06:27:25;97495.38;;;17.93;100.00
19596;BME280;9945;46.010;8.946;2023-05-25T06:29:52;97507.16;;;17.91;100.00
19596;BME280;9945;46.010;8.946;2023-05-25T06:32:19;97509.34;;;17.87;100.00
19596;BME280;9945;46.010;8.946;2023-05-25T06:34:46;97505.88;;;17.87;100.00
19596;BME280;9945;46.010;8.946;2023-05-25T06:37:13;97517.44;;;17.64;100.00
19596;BME280;9945;46.010;8.946;2023-05-25T06:39:40;97520.53;;;17.83;100.00
19596;BME280;9945;46.010;8.946;2023-05-25T06:42:09;97529.28;;;17.83;100.00
19596;BME280;9945;46.010;8.946;2023-05-25T06:44:36;97518.69;;;17.83;100.00
19596;BME280;9945;46.010;8.946;2023-05-25T06:47:03;97532.84;;;17.90;100.00
19596;BME280;9945;46.010;8.946;2023-05-25T06:49:30;97532.84;;;17.90;100.00
19596;BME280;9945;46.010;8.946;2023-05-25T06:51:57;97531.00;;;17.91;100.00
19596;BME280;9945;46.010;8.946;2023-05-25T06:54:24;97522.50;;;17.95;100.00
19596;BME280;9945;46.010;8.946;2023-05-25T06:56:51;97534.56;;;17.98;100.00
19596;BME280;9945;46.010;8.946;2023-05-25T06:59:19;97541.25;;;17.94;100.00
19596;BME280;9945;46.010;8.946;2023-05-25T07:01:46;97544.84;;;18.07;100.00
19596;BME280;9945;46.010;8.946;2023-05-25T07:04:13;97551.53;;;18.03;100.00
19596;BME280;9945;46.010;8.946;2023-05-25T07:06:40;97561.97;;;17.90;100.00
19596;BME280;9945;46.010;8.946;2023-05-25T07:09:07;97569.09;;;17.90;100.00
19596;BME280;9945;46.010;8.946;2023-05-25T07:11:33;97569.94;;;17.90;100.00
19596;BME280;9945;46.010;8.946;2023-05-25T07:14:00;97583.28;;;17.82;100.00
19596;BME280;9945;46.010;8.946;2023-05-25T07:16:29;97589.69;;;17.73;100.00
19596;BME280;9945;46.010;8.946;2023-05-25T07:18:56;97592.94;;;17.46;100.00
19596;BME280;9945;46.010;8.946;2023-05-25T07:21:23;97588.44;;;17.61;100.00
19596;BME280;9945;46.010;8.946;2023-05-25T07:23:50;97593.75;;;17.61;100.00
19596;BME280;9945;46.010;8.946;2023-05-25T07:26:16;97589.50;;;17.74;100.00
19596;BME280;9945;46.010;8.946;2023-05-25T07:28:45;97591.22;;;17.82;100.00
19596;BME280;9945;46.010;8.946;2023-05-25T07:31:12;97593.72;;;17.69;100.00
19596;BME280;9945;46.010;8.946;2023-05-25T07:33:40;97591.59;;;17.94;100.00
19596;BME280;9945;46.010;8.946;2023-05-25T07:36:07;97596.31;;;17.98;100.00
19596;BME280;9945;46.010;8.946;2023-05-25T07:38:35;97596.31;;;17.98;100.00
19596;BME280;9945;46.010;8.946;2023-05-25T07:41:02;97597.16;;;17.99;100.00
19596;BME280;9945;46.010;8.946;2023-05-25T07:43:29;97602.16;;;18.08;100.00
19596;BME280;9945;46.010;8.946;2023-05-25T07:45:56;97612.50;;;17.89;100.00
19596;BME280;9945;46.010;8.946;2023-05-25T07:48:22;97608.53;;;18.14;100.00
19596;BME280;9945;46.010;8.946;2023-05-25T07:50:51;97618.31;;;18.28;100.00
19596;BME280;9945;46.010;8.946;2023-05-25T07:53:17;97619.03;;;18.37;100.00
19596;BME280;9945;46.010;8.946;2023-05-25T07:55:45;97617.25;;;18.44;100.00
19596;BME280;9945;46.010;8.946;2023-05-25T07:58:12;97626.03;;;18.44;100.00
19596;BME280;9945;46.010;8.946;2023-05-25T08:00:39;97632.78;;;18.47;100.00
19596;BME280;9945;46.010;8.946;2023-05-25T08:03:06;97633.06;;;18.52;100.00
19596;BME280;9945;46.010;8.946;2023-05-25T08:05:32;97627.13;;;18.50;100.00
19596;BME280;9945;46.010;8.946;2023-05-25T08:08:01;97633.97;;;18.59;99.89
19596;BME280;9945;46.010;8.946;2023-05-25T08:10:28;97637.28;;;18.61;99.22
19596;BME280;9945;46.010;8.946;2023-05-25T08:12:57;97637.56;;;18.73;98.84
19596;BME280;9945;46.010;8.946;2023-05-25T08:15:23;97642.03;;;18.87;99.24
19596;BME280;9945;46.010;8.946;2023-05-25T08:17:50;97643.91;;;18.93;100.00
19596;BME280;9945;46.010;8.946;2023-05-25T08:20:18;97639.75;;;19.05;100.00
19596;BME280;9945;46.010;8.946;2023-05-25T08:22:44;97642.13;;;19.00;100.00
19596;BME280;9945;46.010;8.946;2023-05-25T08:25:13;97648.72;;;19.04;100.00
19596;BME280;9945;46.010;8.946;2023-05-25T08:27:39;97653.44;;;19.09;100.00
19596;BME280;9945;46.010;8.946;2023-05-25T08:30:07;97665.00;;;19.22;100.00
19596;BME280;9945;46.010;8.946;2023-05-25T08:32:34;97659.31;;;19.25;100.00
19596;BME280;9945;46.010;8.946;2023-05-25T08:35:01;97668.88;;;19.20;100.00
19596;BME280;9945;46.010;8.946;2023-05-25T08:37:30;97662.34;;;19.22;100.00
19596;BME280;9945;46.010;8.946;2023-05-25T08:39:57;97657.97;;;19.15;98.40
19596;BME280;9945;46.010;8.946;2023-05-25T08:42:28;97668.19;;;19.11;100.00
19596;BME280;9945;46.010;8.946;2023-05-25T08:44:55;97662.22;;;19.09;100.00
19596;BME280;9945;46.010;8.946;2023-05-25T08:47:23;97665.56;;;19.39;99.64
19596;BME280;9945;46.010;8.946;2023-05-25T08:49:50;97668.34;;;19.52;99.04
19596;BME280;9945;46.010;8.946;2023-05-25T08:52:21;97666.59;;;19.66;99.29
19596;BME280;9945;46.010;8.946;2023-05-25T08:54:50;97671.19;;;19.79;99.35
19596;BME280;9945;46.010;8.946;2023-05-25T08:57:23;97678.66;;;19.96;95.84
19596;BME280;9945;46.010;8.946;2023-05-25T09:00:01;97675.06;;;20.17;96.24
19596;BME280;9945;46.010;8.946;2023-05-25T09:02:32;97677.38;;;20.27;92.95
19596;BME280;9945;46.010;8.946;2023-05-25T09:05:01;97680.78;;;20.49;91.97
19596;BME280;9945;46.010;8.946;2023-05-25T09:07:29;97683.47;;;20.55;89.61
19596;BME280;9945;46.010;8.946;2023-05-25T09:09:56;97681.84;;;20.67;86.51
19596;BME280;9945;46.010;8.946;2023-05-25T09:12:26;97689.72;;;20.89;84.70
19596;BME280;9945;46.010;8.946;2023-05-25T09:14:57;97688.50;;;20.91;84.64
19596;BME280;9945;46.010;8.946;2023-05-25T09:17:24;97687.63;;;20.84;85.61
19596;BME280;9945;46.010;8.946;2023-05-25T09:19:51;97690.97;;;20.99;82.83
19596;BME280;9945;46.010;8.946;2023-05-25T09:22:18;97697.09;;;20.93;84.23
19596;BME280;9945;46.010;8.946;2023-05-25T09:24:45;97696.69;;;20.90;84.19
19596;BME280;9945;46.010;8.946;2023-05-25T09:27:15;97702.84;;;20.97;84.88
19596;BME280;9945;46.010;8.946;2023-05-25T09:29:44;97702.06;;;21.16;84.18
19596;BME280;9945;46.010;8.946;2023-05-25T09:32:13;97700.25;;;21.23;82.38
19596;BME280;9945;46.010;8.946;2023-05-25T09:34:42;97704.75;;;21.29;82.80
19596;BME280;9945;46.010;8.946;2023-05-25T09:37:13;97698.81;;;21.27;86.99
19596;BME280;9945;46.010;8.946;2023-05-25T09:39:41;97702.13;;;21.42;80.44
19596;BME280;9945;46.010;8.946;2023-05-25T09:42:08;97699.25;;;21.37;83.95
19596;BME280;9945;46.010;8.946;2023-05-25T09:44:35;97695.16;;;21.35;84.23
19596;BME280;9945;46.010;8.946;2023-05-25T09:47:03;97702.13;;;21.56;79.86
19596;BME280;9945;46.010;8.946;2023-05-25T09:49:31;97700.09;;;21.51;81.26
19596;BME280;9945;46.010;8.946;2023-05-25T09:51:59;97705.00;;;21.47;81.31
19596;BME280;9945;46.010;8.946;2023-05-25T09:54:26;97707.88;;;21.66;79.85
19596;BME280;9945;46.010;8.946;2023-05-25T09:56:53;97706.63;;;21.81;79.40
19596;BME280;9945;46.010;8.946;2023-05-25T09:59:20;97712.75;;;21.88;78.60
19596;BME280;9945;46.010;8.946;2023-05-25T10:01:50;97714.81;;;21.53;78.75
19596;BME280;9945;46.010;8.946;2023-05-25T10:04:17;97716.88;;;21.38;78.39
19596;BME280;9945;46.010;8.946;2023-05-25T10:06:47;97716.00;;;21.18;79.53
19596;BME280;9945;46.010;8.946;2023-05-25T10:09:17;97716.66;;;21.53;80.31
19596;BME280;9945;46.010;8.946;2023-05-25T10:11:44;97724.88;;;21.65;81.12
19596;BME280;9945;46.010;8.946;2023-05-25T10:14:16;97724.22;;;21.96;79.21
19596;BME280;9945;46.010;8.946;2023-05-25T10:16:47;97727.13;;;21.87;76.07
19596;BME280;9945;46.010;8.946;2023-05-25T10:19:19;97727.34;;;22.06;75.07
19596;BME280;9945;46.010;8.946;2023-05-25T10:21:53;97725.84;;;22.23;73.29
19596;BME280;9945;46.010;8.946;2023-05-25T10:24:28;97731.19;;;22.36;73.90
19596;BME280;9945;46.010;8.946;2023-05-25T10:26:58;97733.63;;;22.44;70.96
19596;BME280;9945;46.010;8.946;2023-05-25T10:29:27;97731.94;;;22.50;70.94
19596;BME280;9945;46.010;8.946;2023-05-25T10:31:55;97721.41;;;21.97;72.37
19596;BME280;9945;46.010;8.946;2023-05-25T10:34:25;97724.00;;;22.23;68.80
19596;BME280;9945;46.010;8.946;2023-05-25T10:36:54;97718.69;;;22.23;69.94
19596;BME280;9945;46.010;8.946;2023-05-25T10:39:22;97720.28;;;22.31;71.35
19596;BME280;9945;46.010;8.946;2023-05-25T10:41:50;97727.84;;;22.54;70.23
19596;BME280;9945;46.010;8.946;2023-05-25T10:44:18;97717.16;;;22.47;69.00
19596;BME280;9945;46.010;8.946;2023-05-25T10:46:47;97718.59;;;22.50;69.09
19596;BME280;9945;46.010;8.946;2023-05-25T10:49:24;97719.00;;;22.53;69.10
19596;BME280;9945;46.010;8.946;2023-05-25T10:51:58;97708.09;;;22.61;69.23
19596;BME280;9945;46.010;8.946;2023-05-25T10:54:28;97707.03;;;22.76;69.65
19596;BME280;9945;46.010;8.946;2023-05-25T10:57:09;97707.50;;;23.04;69.63
19596;BME280;9945;46.010;8.946;2023-05-25T10:59:39;97706.16;;;23.20;69.78
19596;BME280;9945;46.010;8.946;2023-05-25T11:02:09;97696.72;;;23.17;67.19
19596;BME280;9945;46.010;8.946;2023-05-25T11:04:36;97703.66;;;23.25;66.22
19596;BME280;9945;46.010;8.946;2023-05-25T11:07:06;97700.72;;;23.33;66.15
19596;BME280;9945;46.010;8.946;2023-05-25T11:09:40;97696.19;;;23.33;66.65
19596;BME280;9945;46.010;8.946;2023-05-25T11:12:18;97697.03;;;23.59;66.59
19596;BME280;9945;46.010;8.946;2023-05-25T11:15:08;97697.53;;;23.74;67.21
19596;BME280;9945;46.010;8.946;2023-05-25T11:17:44;97694.63;;;23.75;66.78
19596;BME280;9945;46.010;8.946;2023-05-25T11:20:20;97699.41;;;23.92;68.29
19596;BME280;9945;46.010;8.946;2023-05-25T11:22:50;97694.41;;;23.77;65.56
19596;BME280;9945;46.010;8.946;2023-05-25T11:25:37;97690.66;;;23.85;65.74
19596;BME280;9945;46.010;8.946;2023-05-25T11:28:06;97690.53;;;23.98;64.11
19596;BME280;9945;46.010;8.946;2023-05-25T11:30:33;97687.03;;;23.97;64.09
19596;BME280;9945;46.010;8.946;2023-05-25T11:33:01;97683.94;;;23.75;63.61
19596;BME280;9945;46.010;8.946;2023-05-25T11:35:29;97691.13;;;23.75;64.68
19596;BME280;9945;46.010;8.946;2023-05-25T11:37:59;97692.13;;;23.81;64.09
19596;BME280;9945;46.010;8.946;2023-05-25T11:40:29;97680.28;;;23.70;63.67
19596;BME280;9945;46.010;8.946;2023-05-25T11:42:57;97681.06;;;23.77;64.98
19596;BME280;9945;46.010;8.946;2023-05-25T11:45:27;97689.72;;;23.97;67.49
19596;BME280;9945;46.010;8.946;2023-05-25T11:47:54;97679.59;;;23.99;68.00
19596;BME280;9945;46.010;8.946;2023-05-25T11:50:22;97682.50;;;23.98;66.49
19596;BME280;9945;46.010;8.946;2023-05-25T11:52:49;97675.00;;;24.06;66.82
19596;BME280;9945;46.010;8.946;2023-05-25T11:55:17;97669.38;;;24.14;63.84
19596;BME280;9945;46.010;8.946;2023-05-25T11:57:44;97672.59;;;24.23;61.19
19596;BME280;9945;46.010;8.946;2023-05-25T12:00:12;97679.06;;;24.09;62.02
19596;BME280;9945;46.010;8.946;2023-05-25T12:02:40;97673.28;;;24.12;60.71
19596;BME280;9945;46.010;8.946;2023-05-25T12:05:07;97669.94;;;24.17;59.84
19596;BME280;9945;46.010;8.946;2023-05-25T12:07:41;97674.66;;;24.21;60.98
19596;BME280;9945;46.010;8.946;2023-05-25T12:10:10;97669.94;;;23.98;59.96
19596;BME280;9945;46.010;8.946;2023-05-25T12:12:40;97665.63;;;23.97;58.04
19596;BME280;9945;46.010;8.946;2023-05-25T12:15:08;97668.13;;;23.92;58.64
19596;BME280;9945;46.010;8.946;2023-05-25T12:17:37;97660.69;;;23.76;58.71
19596;BME280;9945;46.010;8.946;2023-05-25T12:20:07;97657.81;;;23.96;59.12
19596;BME280;9945;46.010;8.946;2023-05-25T12:22:35;97659.38;;;24.03;58.62
19596;BME280;9945;46.010;8.946;2023-05-25T12:25:04;97661.09;;;24.16;57.77
19596;BME280;9945;46.010;8.946;2023-05-25T12:27:31;97657.16;;;24.19;55.24
19596;BME280;9945;46.010;8.946;2023-05-25T12:29:59;97655.28;;;24.01;55.41
19596;BME280;9945;46.010;8.946;2023-05-25T12:32:26;97658.28;;;24.11;54.80
19596;BME280;9945;46.010;8.946;2023-05-25T12:35:01;97660.50;;;24.14;56.39
19596;BME280;9945;46.010;8.946;2023-05-25T12:37:28;97655.28;;;24.19;53.49
19596;BME280;9945;46.010;8.946;2023-05-25T12:39:55;97655.03;;;24.27;53.53
19596;BME280;9945;46.010;8.946;2023-05-25T12:42:22;97651.19;;;24.23;54.17
19596;BME280;9945;46.010;8.946;2023-05-25T12:44:53;97651.09;;;24.30;52.98
19596;BME280;9945;46.010;8.946;2023-05-25T12:47:24;97648.16;;;23.95;52.68
19596;BME280;9945;46.010;8.946;2023-05-25T12:50:09;97658.94;;;23.88;52.97
19596;BME280;9945;46.010;8.946;2023-05-25T12:52:38;97640.88;;;24.02;52.41
19596;BME280;9945;46.010;8.946;2023-05-25T12:55:24;97644.97;;;24.04;51.52
19596;BME280;9945;46.010;8.946;2023-05-25T12:57:52;97647.56;;;24.11;52.10
19596;BME280;9945;46.010;8.946;2023-05-25T13:00:20;97641.09;;;24.19;52.13
19596;BME280;9945;46.010;8.946;2023-05-25T13:02:49;97643.97;;;24.24;52.87
19596;BME280;9945;46.010;8.946;2023-05-25T13:05:20;97642.69;;;24.26;50.89
19596;BME280;9945;46.010;8.946;2023-05-25T13:07:47;97645.56;;;24.25;51.21
19596;BME280;9945;46.010;8.946;2023-05-25T13:10:15;97640.56;;;23.92;52.69
19596;BME280;9945;46.010;8.946;2023-05-25T13:12:43;97641.63;;;24.27;53.08
19596;BME280;9945;46.010;8.946;2023-05-25T13:15:10;97642.13;;;24.18;49.67